• Join FlightAware (Why Join?)
  • Login
  • US Flag 
01:48PM EST


 

Airport Tracker/Info


-or-


 

Live Flight TrackerFlight Track Log ✈ N432BG ✈ 10-May-2013 ✈ CYFB - BIKF / KEF

Flight Track Log - Related Links

Times and Time Zones

All times are in EDT time to prevent confusion due to time zone crossing. See the N432BG flight status page for this flight to view local times or setup timezone preferences in your user account.

Time Position Orientation Groundspeed Altitude Reporting Facility
EDT Latitude Longitude Course Direction KTS MPH feet Rate Location/Type
07:08AM 63.8000 -68.5333 59° Northeast 110 127 1,200  Level Montreal Center
07:09AM 63.7833 -68.4500 114° Southeast 130 150 2,500 1,200 Climbing Montreal Center
07:10AM 63.7667 -68.3833 119° Southeast 130 150 3,700 1,140 Climbing Montreal Center
07:11AM 63.8000 -68.3000 48° Northeast 140 161 4,800 1,020 Climbing Montreal Center
07:12AM 63.8167 -68.2167 66° East 140 161 5,800 900 Climbing Montreal Center
07:13AM 63.8620 -68.0009 59° Northeast  Level FlightAware Approximate
07:13AM 63.8500 -68.1667 33° Northeast 150 173 6,700  Level Montreal Center
07:14AM 63.8667 -68.1000 60° Northeast 150 173 7,700 900 Climbing Montreal Center
07:15AM 63.8833 -68.0000 69° East 140 161 8,600 900 Climbing Montreal Center
07:16AM 63.9000 -67.9333 60° Northeast 140 161 9,500 840 Climbing Montreal Center
07:17AM 63.9167 -67.8500 66° East 140 161 10,300 840 Climbing Montreal Center
07:18AM 63.9500 -67.8000 33° Northeast 130 150 11,200 780 Climbing Montreal Center
07:19AM 63.9667 -67.7167 65° Northeast 130 150 11,900 540 Climbing Montreal Center
07:20AM 63.9667 -67.6333 90° East 140 161 12,300 360 Climbing Montreal Center
07:21AM 64.0000 -67.5500 48° Northeast 140 161 12,700 420 Climbing Montreal Center
07:22AM 64.0333 -67.4667 48° Northeast 150 173 13,200 480 Climbing Montreal Center
07:23AM 64.0333 -67.3833 90° East 160 184 13,700 480 Climbing Montreal Center
07:24AM 64.0667 -67.3000 48° Northeast 150 173 14,200 480 Climbing Montreal Center
07:25AM 64.0833 -67.2167 65° Northeast 150 173 14,700 480 Climbing Montreal Center
07:26AM 64.1167 -67.1333 47° Northeast 140 161 15,200 420 Climbing Montreal Center
07:27AM 64.1167 -67.0500 90° East 150 173 15,600 300 Climbing Montreal Center
07:28AM 64.1500 -66.9667 47° Northeast 150 173 15,900 300 Climbing Montreal Center
07:29AM 64.1667 -66.8833 65° Northeast 150 173 16,200 300 Climbing Montreal Center
07:30AM 64.1833 -66.8000 65° Northeast 150 173 16,600 360 Climbing Montreal Center
07:31AM 64.2000 -66.7167 65° Northeast 150 173 17,000 240 Climbing Montreal Center
07:32AM 64.2333 -66.6333 47° Northeast 160 184 17,100  Climbing Montreal Center
07:33AM 64.2667 -66.5500 47° Northeast 170 196 17,000 -60 Descending Montreal Center
07:34AM 64.2667 -66.4667 90° East 170 196 17,000  Level Montreal Center
07:35AM 64.3000 -66.3833 47° Northeast 170 196 17,100  Climbing Montreal Center
07:36AM 64.3333 -66.2500 60° Northeast 160 184 17,100 -60 Level Montreal Center
07:37AM 64.3500 -66.1667 65° Northeast 160 184 17,000  Descending Montreal Center
07:38AM 64.3667 -66.0833 65° Northeast 160 184 17,100  Climbing Montreal Center
07:39AM 64.4000 -66.0000 47° Northeast 160 184 17,100 -60 Level Montreal Center
07:40AM 64.4167 -65.9167 65° Northeast 160 184 17,000 -60 Descending Montreal Center
07:41AM 64.4333 -65.8333 65° Northeast 160 184 17,000  Level Montreal Center
07:42AM 64.4667 -65.7500 47° Northeast 170 196 17,000  Level Montreal Center
07:43AM 64.4833 -65.6167 74° East 160 184 17,000  Level Montreal Center
07:44AM 64.5000 -65.5333 65° Northeast 160 184 17,000  Level Montreal Center
07:45AM 64.5167 -65.4500 65° Northeast 160 184 17,000  Level Montreal Center
07:46AM 64.5500 -65.3500 52° Northeast 170 196 17,000  Level Montreal Center
07:47AM 64.5667 -65.2667 65° Northeast 170 196 17,000  Level Montreal Center
07:48AM 64.5833 -65.1500 72° East 180 207 17,000  Level Montreal Center
07:49AM 64.6167 -65.0500 52° Northeast 170 196 17,000  Level Montreal Center
07:50AM 64.6500 -64.9667 47° Northeast 170 196 17,000  Level Montreal Center
07:51AM 64.6500 -64.8833 90° East 170 196 17,000  Level Montreal Center
07:52AM 64.6833 -64.7500 60° Northeast 170 196 17,000  Level Montreal Center
07:53AM 64.7000 -64.6667 65° Northeast 170 196 17,000  Level Montreal Center
07:54AM 64.7333 -64.5833 47° Northeast 170 196 17,000  Level Montreal Center
07:55AM 64.7500 -64.5000 65° Northeast 170 196 17,000  Level Montreal Center
07:56AM 64.7667 -64.4000 69° East 160 184 17,000  Level Montreal Center
07:57AM 64.8000 -64.3167 47° Northeast 170 196 17,000  Level Montreal Center
07:58AM 64.8000 -64.1833 90° East 170 196 17,000  Level Montreal Center
07:59AM 64.8333 -64.1000 47° Northeast 160 184 17,000  Level Montreal Center
08:00AM 64.8500 -64.0000 69° East 160 184 17,000  Level Montreal Center
08:01AM 64.8667 -63.9167 65° Northeast 160 184 17,000  Level Montreal Center
08:02AM 64.9000 -63.8333 47° Northeast 170 196 17,000  Level Montreal Center
08:03AM 64.9167 -63.7000 74° East 160 184 17,000  Level Montreal Center
08:04AM 64.9333 -63.6500 52° Northeast 170 196 17,000  Level Montreal Center
08:05AM 64.9500 -63.5333 71° East 160 184 17,000  Level Montreal Center
08:06AM 64.9833 -63.4333 52° Northeast 160 184 17,000  Level Montreal Center
08:07AM 64.9833 -63.3500 90° East 170 196 17,000  Level Montreal Center
08:08AM 65.0167 -63.2500 52° Northeast 160 184 17,000  Level Montreal Center
08:09AM 65.0500 -63.1667 47° Northeast 160 184 17,000  Level Montreal Center
08:10AM 65.0500 -63.0833 90° East 160 184 17,000  Level Montreal Center
08:11AM 65.0833 -62.9833 52° Northeast 170 196 17,000  Level Montreal Center
08:12AM 65.1000 -62.9000 65° Northeast 160 184 17,000  Level Montreal Center
08:13AM 65.1167 -62.7667 73° East 170 196 17,000 -180 Level Montreal Center
08:13AM 65.1333 -62.8167 308° West 170 196 16,800  Descending Gander Center
08:14AM 65.1333 -62.6833 90° East 160 184 17,000 120 Climbing Montreal Center
08:15AM 65.1667 -62.5833 52° Northeast 160 184 17,000  Level Montreal Center
08:16AM 65.1667 -62.4667 90° East 160 184 17,000  Level Montreal Center
08:17AM 65.2000 -62.4000 40° Northeast 160 184 17,000  Level Montreal Center
08:18AM 65.2167 -62.2667 73° East 160 184 17,000  Level Montreal Center
08:19AM 65.2333 -62.1833 64° Northeast 160 184 17,000  Level Montreal Center
08:20AM 65.2500 -62.1000 64° Northeast 160 184 17,000  Level Montreal Center
08:21AM 65.2833 -62.0000 51° Northeast 160 184 17,000  Level Montreal Center
08:22AM 65.2833 -61.9167 90° East 160 184 17,000  Level Montreal Center
08:23AM 65.3167 -61.7833 59° Northeast 170 196 17,000  Level Montreal Center
08:24AM 65.3167 -61.7000 90° East 160 184 17,000  Level Montreal Center
08:25AM 65.3500 -61.6333 40° Northeast 160 184 17,000  Level Montreal Center
08:26AM 65.3667 -61.5000 73° East 160 184 17,000 -180 Level Montreal Center
08:26AM 65.3833 -61.6000 292° West 160 184 16,800 -180 Descending Gander Center
08:27AM 65.4000 -61.4833 71° East 160 184 16,800 120 Level Gander Center
08:28AM 65.4167 -61.3667 71° East 160 184 17,000  Climbing Montreal Center
08:28AM 65.4167 -61.4000 270° West 160 184 16,800  Descending Gander Center
08:29AM 65.4333 -61.3000 68° East 200 230 17,000 120 Climbing Montreal Center
08:30AM 65.4333 -61.1333 90° East 180 207 17,000  Level Montreal Center
08:31AM 65.4667 -61.0500 46° Northeast 170 196 17,000  Level Montreal Center
08:32AM 65.4667 -60.9500 90° East 160 184 17,000  Level Montreal Center
08:33AM 65.5000 -60.8667 46° Northeast 160 184 17,000  Level Montreal Center
08:34AM 65.5167 -60.7667 68° East 160 184 17,000  Level Montreal Center
08:35AM 65.5500 -60.6667 51° Northeast 160 184 17,000  Level Montreal Center
08:36AM 65.5500 -60.5500 90° East 160 184 17,000  Level Montreal Center
08:37AM 65.5833 -60.4500 51° Northeast 170 196 17,000  Level Montreal Center
08:38AM 65.5667 -60.2500 101° East 240 276 17,000  Level Montreal Center
08:39AM 65.6167 -60.2667 352° North 190 219 17,000  Level Montreal Center
08:40AM 65.6333 -60.1667 68° East 170 196 17,000  Level Montreal Center
08:41AM 65.6500 -60.0833 64° Northeast 170 196 17,000  Level Montreal Center
08:42AM 65.6667 -59.9833 68° East 160 184 17,000  Level Montreal Center
08:43AM 65.6833 -59.8833 68° East 160 184 17,000  Level Montreal Center
08:44AM 65.7000 -59.7500 73° East 160 184 17,000  Level Montreal Center
08:45AM 65.7167 -59.7000 51° Northeast 160 184 17,000  Level Montreal Center
08:46AM 65.7500 -59.5667 59° Northeast 220 253 17,000  Level Montreal Center
08:47AM 65.7500 -59.4667 90° East 190 219 17,000  Level Montreal Center
08:48AM 65.7833 -59.3667 51° Northeast 180 207 17,000  Level Montreal Center
08:49AM 65.8000 -59.2833 64° Northeast 170 196 17,000 -60 Level Montreal Center
08:51AM 65.8500 -59.1167 54° Northeast 160 184 16,800 -60 Descending Gander Center
08:52AM 65.8667 -58.9833 73° East 160 184 16,800  Level Gander Center
08:53AM 65.8667 -58.9000 90° East 170 196 16,800  Level Gander Center
08:54AM 65.8833 -58.7833 71° East 170 196 16,800  Level Gander Center
08:55AM 65.9167 -58.7000 46° Northeast 160 184 16,800  Level Gander Center
08:56AM 65.9333 -58.5833 71° East 170 196 16,800  Level Gander Center
08:58AM 65.9575 -58.4351 68° East  Level FlightAware Approximate
09:05AM 66.0736 -57.7070 68° East  Level FlightAware Approximate
09:06AM 66.0899 -57.6025 69° East  Level FlightAware Approximate
09:07AM 66.1061 -57.4978 69° East  Level FlightAware Approximate
09:08AM 66.1223 -57.3930 69° East  Level FlightAware Approximate
09:09AM 66.1384 -57.2881 69° East  Level FlightAware Approximate
09:10AM 66.1544 -57.1830 69° East  Level FlightAware Approximate
09:11AM 66.1704 -57.0778 69° East  Level FlightAware Approximate
09:12AM 66.1862 -56.9724 69° East  Level FlightAware Approximate
09:13AM 66.2020 -56.8670 70° East  Level FlightAware Approximate
09:14AM 66.2178 -56.7613 70° East  Level FlightAware Approximate
09:15AM 66.2334 -56.6556 70° East  Level FlightAware Approximate
09:16AM 66.2490 -56.5497 70° East  Level FlightAware Approximate
09:17AM 66.2645 -56.4437 70° East  Level FlightAware Approximate
09:18AM 66.2800 -56.3376 70° East  Level FlightAware Approximate
09:19AM 66.2954 -56.2313 70° East  Level FlightAware Approximate
09:20AM 66.3107 -56.1250 70° East  Level FlightAware Approximate
09:21AM 66.3259 -56.0184 70° East  Level FlightAware Approximate
09:22AM 66.3410 -55.9118 70° East  Level FlightAware Approximate
09:23AM 66.3561 -55.8050 71° East  Level FlightAware Approximate
09:24AM 66.3711 -55.6981 71° East  Level FlightAware Approximate
09:25AM 66.3861 -55.5911 71° East  Level FlightAware Approximate
09:26AM 66.4009 -55.4839 71° East  Level FlightAware Approximate
09:27AM 66.4157 -55.3766 71° East  Level FlightAware Approximate
09:28AM 66.4304 -55.2692 71° East  Level FlightAware Approximate
09:29AM 66.4451 -55.1617 71° East  Level FlightAware Approximate
09:30AM 66.4596 -55.0540 71° East  Level FlightAware Approximate
09:31AM 66.4741 -54.9462 71° East  Level FlightAware Approximate
09:32AM 66.4885 -54.8383 71° East  Level FlightAware Approximate
09:33AM 66.5029 -54.7302 72° East  Level FlightAware Approximate
09:34AM 66.5172 -54.6221 72° East  Level FlightAware Approximate
09:35AM 66.5313 -54.5138 72° East  Level FlightAware Approximate
09:36AM 66.5455 -54.4054 72° East  Level FlightAware Approximate
09:37AM 66.5595 -54.2968 72° East  Level FlightAware Approximate
09:38AM 66.5735 -54.1882 72° East  Level FlightAware Approximate
09:39AM 66.5874 -54.0794 72° East  Level FlightAware Approximate
09:40AM 66.6012 -53.9705 72° East  Level FlightAware Approximate
09:41AM 66.6149 -53.8615 72° East  Level FlightAware Approximate
09:42AM 66.6286 -53.7523 72° East  Level FlightAware Approximate
09:43AM 66.6422 -53.6431 73° East  Level FlightAware Approximate
09:44AM 66.6557 -53.5337 73° East  Level FlightAware Approximate
09:45AM 66.6691 -53.4242 73° East  Level FlightAware Approximate
09:46AM 66.6825 -53.3146 73° East  Level FlightAware Approximate
09:47AM 66.6958 -53.2048 73° East  Level FlightAware Approximate
09:48AM 66.7090 -53.0950 73° East  Level FlightAware Approximate
09:49AM 66.7221 -52.9850 73° East  Level FlightAware Approximate
09:50AM 66.7352 -52.8749 73° East  Level FlightAware Approximate
09:51AM 66.7482 -52.7647 73° East  Level FlightAware Approximate
09:52AM 66.7611 -52.6544 73° East  Level FlightAware Approximate
09:53AM 66.7739 -52.5439 74° East  Level FlightAware Approximate
09:54AM 66.7866 -52.4334 74° East  Level FlightAware Approximate
09:55AM 66.7993 -52.3227 74° East  Level FlightAware Approximate
09:56AM 66.8119 -52.2119 74° East  Level FlightAware Approximate
09:57AM 66.8244 -52.1010 74° East  Level FlightAware Approximate
09:58AM 66.8369 -51.9900 74° East  Level FlightAware Approximate
09:59AM 66.8492 -51.8789 74° East  Level FlightAware Approximate
10:00AM 66.8615 -51.7677 74° East  Level FlightAware Approximate
10:01AM 66.8737 -51.6563 74° East  Level FlightAware Approximate
10:02AM 66.8858 -51.5449 74° East  Level FlightAware Approximate
10:03AM 66.8979 -51.4333 75° East  Level FlightAware Approximate
10:04AM 66.9099 -51.3216 75° East  Level FlightAware Approximate
10:05AM 66.9217 -51.2098 75° East  Level FlightAware Approximate
10:06AM 66.9335 -51.0979 75° East  Level FlightAware Approximate
10:07AM 66.9453 -50.9860 75° East  Level FlightAware Approximate
10:08AM 66.9569 -50.8738 75° East  Level FlightAware Approximate
10:09AM 66.9685 -50.7616 75° East  Level FlightAware Approximate
10:10AM 66.9800 -50.6493 75° East  Level FlightAware Approximate
10:11AM 66.9812 -50.5343 94° East  Level FlightAware Approximate
10:12AM 66.9781 -50.4184 94° East  Level FlightAware Approximate
10:13AM 66.9750 -50.3026 94° East  Level FlightAware Approximate
10:14AM 66.9718 -50.1868 94° East  Level FlightAware Approximate
10:15AM 66.9685 -50.0710 94° East  Level FlightAware Approximate
10:16AM 66.9651 -49.9553 94° East  Level FlightAware Approximate
10:17AM 66.9616 -49.8396 94° East  Level FlightAware Approximate
10:18AM 66.9581 -49.7239 94° East  Level FlightAware Approximate
10:19AM 66.9544 -49.6082 95° East  Level FlightAware Approximate
10:20AM 66.9507 -49.4926 95° East  Level FlightAware Approximate
10:21AM 66.9469 -49.3771 95° East  Level FlightAware Approximate
10:22AM 66.9430 -49.2615 95° East  Level FlightAware Approximate
10:23AM 66.9390 -49.1460 95° East  Level FlightAware Approximate
10:24AM 66.9349 -49.0306 95° East  Level FlightAware Approximate
10:25AM 66.9308 -48.9151 95° East  Level FlightAware Approximate
10:26AM 66.9266 -48.7998 95° East  Level FlightAware Approximate
10:27AM 66.9222 -48.6844 95° East  Level FlightAware Approximate
10:28AM 66.9178 -48.5691 96° East  Level FlightAware Approximate
10:29AM 66.9134 -48.4539 96° East  Level FlightAware Approximate
10:30AM 66.9088 -48.3386 96° East  Level FlightAware Approximate
10:31AM 66.9041 -48.2235 96° East  Level FlightAware Approximate
10:32AM 66.8994 -48.1083 96° East  Level FlightAware Approximate
10:33AM 66.8946 -47.9933 96° East  Level FlightAware Approximate
10:34AM 66.8897 -47.8782 96° East  Level FlightAware Approximate
10:35AM 66.8847 -47.7632 96° East  Level FlightAware Approximate
10:36AM 66.8796 -47.6483 96° East  Level FlightAware Approximate
10:37AM 66.8745 -47.5334 96° East  Level FlightAware Approximate
10:38AM 66.8692 -47.4185 97° East  Level FlightAware Approximate
10:39AM 66.8639 -47.3037 97° East  Level FlightAware Approximate
10:40AM 66.8585 -47.1890 97° East  Level FlightAware Approximate
10:41AM 66.8531 -47.0743 97° East  Level FlightAware Approximate
10:42AM 66.8475 -46.9596 97° East  Level FlightAware Approximate
10:43AM 66.8418 -46.8451 97° East  Level FlightAware Approximate
10:44AM 66.8361 -46.7305 97° East  Level FlightAware Approximate
10:45AM 66.8303 -46.6160 97° East  Level FlightAware Approximate
10:46AM 66.8244 -46.5016 97° East  Level FlightAware Approximate
10:47AM 66.8184 -46.3872 98° East  Level FlightAware Approximate
10:48AM 66.8123 -46.2729 98° East  Level FlightAware Approximate
10:49AM 66.8062 -46.1587 98° East  Level FlightAware Approximate
10:50AM 66.8000 -46.0445 98° East  Level FlightAware Approximate
10:51AM 66.7937 -45.9303 98° East  Level FlightAware Approximate
10:52AM 66.7873 -45.8162 98° East  Level FlightAware Approximate
10:53AM 66.7808 -45.7022 98° East  Level FlightAware Approximate
10:54AM 66.7742 -45.5882 98° East  Level FlightAware Approximate
10:55AM 66.7676 -45.4743 98° East  Level FlightAware Approximate
10:56AM 66.7609 -45.3605 98° East  Level FlightAware Approximate
10:57AM 66.7541 -45.2467 99° East  Level FlightAware Approximate
10:58AM 66.7472 -45.1330 99° East  Level FlightAware Approximate
10:59AM 66.7402 -45.0193 99° East  Level FlightAware Approximate
11:00AM 66.7332 -44.9057 99° East  Level FlightAware Approximate
11:01AM 66.7261 -44.7922 99° East  Level FlightAware Approximate
11:02AM 66.7188 -44.6787 99° East  Level FlightAware Approximate
11:03AM 66.7115 -44.5654 99° East  Level FlightAware Approximate
11:04AM 66.7042 -44.4520 99° East  Level FlightAware Approximate
11:05AM 66.6967 -44.3388 99° East  Level FlightAware Approximate
11:06AM 66.6892 -44.2256 100° East  Level FlightAware Approximate
11:07AM 66.6816 -44.1125 100° East  Level FlightAware Approximate
11:08AM 66.6739 -43.9994 100° East  Level FlightAware Approximate
11:09AM 66.6661 -43.8864 100° East  Level FlightAware Approximate
11:10AM 66.6582 -43.7735 100° East  Level FlightAware Approximate
11:11AM 66.6503 -43.6607 100° East  Level FlightAware Approximate
11:12AM 66.6423 -43.5479 100° East  Level FlightAware Approximate
11:13AM 66.6342 -43.4352 100° East  Level FlightAware Approximate
11:14AM 66.6260 -43.3226 100° East  Level FlightAware Approximate
11:15AM 66.6177 -43.2101 100° East  Level FlightAware Approximate
11:16AM 66.6094 -43.0976 101° East  Level FlightAware Approximate
11:17AM 66.6009 -42.9852 101° East  Level FlightAware Approximate
11:18AM 66.5924 -42.8729 101° East  Level FlightAware Approximate
11:19AM 66.5838 -42.7607 101° East  Level FlightAware Approximate
11:20AM 66.5752 -42.6486 101° East  Level FlightAware Approximate
11:21AM 66.5664 -42.5365 101° East  Level FlightAware Approximate
11:22AM 66.5576 -42.4245 101° East  Level FlightAware Approximate
11:23AM 66.5487 -42.3126 101° East  Level FlightAware Approximate
11:24AM 66.5397 -42.2007 101° East  Level FlightAware Approximate
11:25AM 66.5306 -42.0890 101° East  Level FlightAware Approximate
11:26AM 66.5215 -41.9773 102° East  Level FlightAware Approximate
11:27AM 66.5122 -41.8657 102° East  Level FlightAware Approximate
11:28AM 66.5029 -41.7542 102° East  Level FlightAware Approximate
11:29AM 66.4936 -41.6428 102° East  Level FlightAware Approximate
11:30AM 66.4841 -41.5314 102° East  Level FlightAware Approximate
11:31AM 66.4746 -41.4202 102° East  Level FlightAware Approximate
11:32AM 66.4649 -41.3090 102° East  Level FlightAware Approximate
11:33AM 66.4552 -41.1979 102° East  Level FlightAware Approximate
11:34AM 66.4455 -41.0869 102° East  Level FlightAware Approximate
11:35AM 66.4356 -40.9760 102° East  Level FlightAware Approximate
11:36AM 66.4257 -40.8652 103° East  Level FlightAware Approximate
11:37AM 66.4156 -40.7545 103° East  Level FlightAware Approximate
11:38AM 66.4056 -40.6438 103° East  Level FlightAware Approximate
11:39AM 66.3954 -40.5333 103° East  Level FlightAware Approximate
11:40AM 66.3851 -40.4228 103° East  Level FlightAware Approximate
11:41AM 66.3748 -40.3125 103° East  Level FlightAware Approximate
11:42AM 66.3644 -40.2022 103° East  Level FlightAware Approximate
11:43AM 66.3539 -40.0920 103° East  Level FlightAware Approximate
11:44AM 66.3434 -39.9819 103° East  Level FlightAware Approximate
11:45AM 66.3327 -39.8719 103° East  Level FlightAware Approximate
11:46AM 66.3220 -39.7620 104° East  Level FlightAware Approximate
11:47AM 66.3112 -39.6521 104° East  Level FlightAware Approximate
11:48AM 66.3003 -39.5424 104° East  Level FlightAware Approximate
11:49AM 66.2894 -39.4328 104° East  Level FlightAware Approximate
11:50AM 66.2784 -39.3233 104° East  Level FlightAware Approximate
11:51AM 66.2673 -39.2138 104° East  Level FlightAware Approximate
11:52AM 66.2561 -39.1045 104° East  Level FlightAware Approximate
11:53AM 66.2448 -38.9953 104° East  Level FlightAware Approximate
11:54AM 66.2335 -38.8861 104° East  Level FlightAware Approximate
11:55AM 66.2221 -38.7771 105° East  Level FlightAware Approximate
11:56AM 66.2106 -38.6681 105° East  Level FlightAware Approximate
11:57AM 66.1990 -38.5593 105° East  Level FlightAware Approximate
11:58AM 66.1874 -38.4505 105° East  Level FlightAware Approximate
11:59AM 66.1757 -38.3419 105° East  Level FlightAware Approximate
12:00PM 66.1639 -38.2333 105° East  Level FlightAware Approximate
12:01PM 66.1520 -38.1249 105° East  Level FlightAware Approximate
12:02PM 66.1401 -38.0165 105° East  Level FlightAware Approximate
12:03PM 66.1281 -37.9083 105° East  Level FlightAware Approximate
12:04PM 66.1160 -37.8001 105° East  Level FlightAware Approximate
12:05PM 66.1038 -37.6921 105° East  Level FlightAware Approximate
12:06PM 66.0915 -37.5842 106° East  Level FlightAware Approximate
12:07PM 66.0792 -37.4763 106° East  Level FlightAware Approximate
12:08PM 66.0668 -37.3686 106° East  Level FlightAware Approximate
12:09PM 66.0544 -37.2610 106° East  Level FlightAware Approximate
12:10PM 66.0418 -37.1535 106° East  Level FlightAware Approximate
12:11PM 66.0292 -37.0461 106° East  Level FlightAware Approximate
12:12PM 66.0165 -36.9388 106° East  Level FlightAware Approximate
12:13PM 66.0037 -36.8316 106° East  Level FlightAware Approximate
12:14PM 65.9909 -36.7245 106° East  Level FlightAware Approximate
12:15PM 65.9780 -36.6176 106° East  Level FlightAware Approximate
12:16PM 65.9650 -36.5107 107° East  Level FlightAware Approximate
12:17PM 65.9519 -36.4039 107° East  Level FlightAware Approximate
12:18PM 65.9388 -36.2973 107° East  Level FlightAware Approximate
12:19PM 65.9256 -36.1907 107° East  Level FlightAware Approximate
12:20PM 65.9123 -36.0843 107° East  Level FlightAware Approximate
12:21PM 65.8989 -35.9780 107° East  Level FlightAware Approximate
12:22PM 65.8855 -35.8718 107° East  Level FlightAware Approximate
12:23PM 65.8720 -35.7657 107° East  Level FlightAware Approximate
12:24PM 65.8584 -35.6597 107° East  Level FlightAware Approximate
12:25PM 65.8447 -35.5538 107° East  Level FlightAware Approximate
12:26PM 65.8310 -35.4481 108° East  Level FlightAware Approximate
12:27PM 65.8172 -35.3424 108° East  Level FlightAware Approximate
12:28PM 65.8033 -35.2369 108° East  Level FlightAware Approximate
12:29PM 65.7894 -35.1315 108° East  Level FlightAware Approximate
12:30PM 65.7754 -35.0262 108° East  Level FlightAware Approximate
12:31PM 65.7613 -34.9210 108° East  Level FlightAware Approximate
12:32PM 65.7471 -34.8159 108° East  Level FlightAware Approximate
12:33PM 65.7329 -34.7110 108° East  Level FlightAware Approximate
12:34PM 65.7186 -34.6061 108° East  Level FlightAware Approximate
12:35PM 65.7042 -34.5014 108° East  Level FlightAware Approximate
12:36PM 65.6897 -34.3968 109° East  Level FlightAware Approximate
12:37PM 65.6752 -34.2923 109° East  Level FlightAware Approximate
12:38PM 65.6606 -34.1879 109° East  Level FlightAware Approximate
12:39PM 65.6460 -34.0837 109° East  Level FlightAware Approximate
12:40PM 65.6312 -33.9795 109° East  Level FlightAware Approximate
12:41PM 65.6164 -33.8755 109° East  Level FlightAware Approximate
12:42PM 65.6015 -33.7716 109° East  Level FlightAware Approximate
12:43PM 65.5866 -33.6678 109° East  Level FlightAware Approximate
12:44PM 65.5716 -33.5642 109° East  Level FlightAware Approximate
12:45PM 65.5565 -33.4606 109° East  Level FlightAware Approximate
12:46PM 65.5413 -33.3572 109° East  Level FlightAware Approximate
12:47PM 65.5261 -33.2539 110° East  Level FlightAware Approximate
12:48PM 65.5108 -33.1507 110° East  Level FlightAware Approximate
12:49PM 65.4954 -33.0477 110° East  Level FlightAware Approximate
12:50PM 65.4800 -32.9447 110° East  Level FlightAware Approximate
12:51PM 65.4645 -32.8419 110° East  Level FlightAware Approximate
12:52PM 65.4489 -32.7392 110° East  Level FlightAware Approximate
12:53PM 65.4332 -32.6367 110° East  Level FlightAware Approximate
12:54PM 65.4175 -32.5342 110° East  Level FlightAware Approximate
12:55PM 65.4017 -32.4319 110° East  Level FlightAware Approximate
12:56PM 65.3859 -32.3297 110° East  Level FlightAware Approximate
12:57PM 65.3699 -32.2276 110° East  Level FlightAware Approximate
12:58PM 65.3540 -32.1256 111° Southeast  Level FlightAware Approximate
12:59PM 65.3379 -32.0238 111° Southeast  Level FlightAware Approximate
01:00PM 65.3218 -31.9221 111° Southeast  Level FlightAware Approximate
01:01PM 65.3056 -31.8205 111° Southeast  Level FlightAware Approximate
01:02PM 65.2893 -31.7190 111° Southeast  Level FlightAware Approximate
01:03PM 65.2729 -31.6177 111° Southeast  Level FlightAware Approximate
01:04PM 65.2566 -31.5165 111° Southeast  Level FlightAware Approximate
01:05PM 65.2401 -31.4154 111° Southeast  Level FlightAware Approximate
01:06PM 65.2235 -31.3145 111° Southeast  Level FlightAware Approximate
01:07PM 65.2069 -31.2136 111° Southeast  Level FlightAware Approximate
01:08PM 65.1902 -31.1129 111° Southeast  Level FlightAware Approximate
01:09PM 65.1735 -31.0124 112° Southeast  Level FlightAware Approximate
01:10PM 65.1567 -30.9119 112° Southeast  Level FlightAware Approximate
01:11PM 65.1398 -30.8116 112° Southeast  Level FlightAware Approximate
01:12PM 65.1229 -30.7114 112° Southeast  Level FlightAware Approximate
01:13PM 65.1059 -30.6114 112° Southeast  Level FlightAware Approximate
01:14PM 65.0888 -30.5114 112° Southeast  Level FlightAware Approximate
01:15PM 65.0716 -30.4116 112° Southeast  Level FlightAware Approximate
01:16PM 65.0544 -30.3119 112° Southeast  Level FlightAware Approximate
01:17PM 65.0372 -30.2124 112° Southeast  Level FlightAware Approximate
01:18PM 65.0198 -30.1130 112° Southeast  Level FlightAware Approximate
01:19PM 65.0024 -30.0137 113° Southeast  Level FlightAware Approximate
01:20PM 64.9902 -29.9104 104° East  Level FlightAware Approximate
01:21PM 64.9787 -29.8065 105° East  Level FlightAware Approximate
01:22PM 64.9672 -29.7026 105° East  Level FlightAware Approximate
01:23PM 64.9556 -29.5989 105° East  Level FlightAware Approximate
01:24PM 64.9439 -29.4953 105° East  Level FlightAware Approximate
01:25PM 64.9322 -29.3917 105° East  Level FlightAware Approximate
01:26PM 64.9204 -29.2882 105° East  Level FlightAware Approximate
01:27PM 64.9085 -29.1848 105° East  Level FlightAware Approximate
01:28PM 64.8965 -29.0816 105° East  Level FlightAware Approximate
01:29PM 64.8845 -28.9783 105° East  Level FlightAware Approximate
01:30PM 64.8724 -28.8752 105° East  Level FlightAware Approximate
01:31PM 64.8602 -28.7722 106° East  Level FlightAware Approximate
01:32PM 64.8480 -28.6693 106° East  Level FlightAware Approximate
01:33PM 64.8357 -28.5665 106° East  Level FlightAware Approximate
01:34PM 64.8233 -28.4638 106° East  Level FlightAware Approximate
01:35PM 64.8108 -28.3611 106° East  Level FlightAware Approximate
01:36PM 64.7983 -28.2586 106° East  Level FlightAware Approximate
01:37PM 64.7857 -28.1562 106° East  Level FlightAware Approximate
01:38PM 64.7730 -28.0538 106° East  Level FlightAware Approximate
01:39PM 64.7603 -27.9516 106° East  Level FlightAware Approximate
01:40PM 64.7475 -27.8494 106° East  Level FlightAware Approximate
01:41PM 64.7346 -27.7474 106° East  Level FlightAware Approximate
01:42PM 64.7216 -27.6454 107° East  Level FlightAware Approximate
01:43PM 64.7086 -27.5435 107° East  Level FlightAware Approximate
01:44PM 64.6955 -27.4418 107° East  Level FlightAware Approximate
01:45PM 64.6824 -27.3401 107° East  Level FlightAware Approximate
01:46PM 64.6691 -27.2385 107° East  Level FlightAware Approximate
01:47PM 64.6558 -27.1371 107° East  Level FlightAware Approximate
01:48PM 64.6425 -27.0357 107° East  Level FlightAware Approximate
01:49PM 64.6291 -26.9344 107° East  Level FlightAware Approximate
01:50PM 64.6159 -26.8330 107° East  Level FlightAware Approximate
01:51PM 64.6025 -26.7318 107° East  Level FlightAware Approximate
01:52PM 64.5891 -26.6306 107° East  Level FlightAware Approximate
01:53PM 64.5756 -26.5296 107° East  Level FlightAware Approximate
01:54PM 64.5621 -26.4287 107° East  Level FlightAware Approximate
01:55PM 64.5485 -26.3278 107° East  Level FlightAware Approximate
01:56PM 64.5348 -26.2271 107° East  Level FlightAware Approximate
01:57PM 64.5211 -26.1264 108° East  Level FlightAware Approximate
01:58PM 64.5072 -26.0259 108° East  Level FlightAware Approximate
01:59PM 64.4933 -25.9255 108° East  Level FlightAware Approximate
02:00PM 64.4794 -25.8251 108° East  Level FlightAware Approximate
02:01PM 64.4654 -25.7249 108° East  Level FlightAware Approximate
02:02PM 64.4513 -25.6248 108° East  Level FlightAware Approximate
02:03PM 64.4371 -25.5248 108° East  Level FlightAware Approximate
02:04PM 64.4229 -25.4249 108° East  Level FlightAware Approximate
02:05PM 64.4086 -25.3250 108° East  Level FlightAware Approximate
02:06PM 64.3942 -25.2253 108° East  Level FlightAware Approximate
02:07PM 64.3796 -25.1259 110° East  Level FlightAware Approximate
02:08PM 64.3641 -25.0272 110° East  Level FlightAware Approximate
02:09PM 64.3485 -24.9286 110° East  Level FlightAware Approximate
02:10PM 64.3329 -24.8302 110° East  Level FlightAware Approximate
02:11PM 64.3172 -24.7318 110° East  Level FlightAware Approximate
02:12PM 64.3014 -24.6336 110° East  Level FlightAware Approximate
02:13PM 64.2856 -24.5354 110° East  Level FlightAware Approximate
02:14PM 64.2697 -24.4374 110° East  Level FlightAware Approximate
02:15PM 64.2537 -24.3395 111° Southeast  Level FlightAware Approximate
02:16PM 64.2397 -24.2402 107° East  Level FlightAware Approximate
02:17PM 64.2261 -24.1405 107° East  Level FlightAware Approximate
02:18PM 64.2125 -24.0408 107° East  Level FlightAware Approximate
02:19PM 64.1986 -23.9415 111° Southeast  Level FlightAware Approximate
02:20PM 64.1826 -23.8439 111° Southeast  Level FlightAware Approximate
02:21PM 64.1665 -23.7464 111° Southeast  Level FlightAware Approximate
02:22PM 64.1504 -23.6490 111° Southeast  Level FlightAware Approximate
02:23PM 64.1341 -23.5517 111° Southeast  Level FlightAware Approximate
02:24PM 64.1179 -23.4546 111° Southeast  Level FlightAware Approximate
02:25PM 64.1015 -23.3575 111° Southeast  Level FlightAware Approximate
02:26PM 64.0851 -23.2606 111° Southeast  Level FlightAware Approximate
02:27PM 64.0686 -23.1639 111° Southeast  Level FlightAware Approximate
02:28PM 64.0521 -23.0672 111° Southeast  Level FlightAware Approximate
02:29PM 64.0354 -22.9706 111° Southeast  Level FlightAware Approximate
02:30PM 64.0187 -22.8742 112° Southeast  Level FlightAware Approximate
02:31PM 64.0020 -22.7779 112° Southeast  Level FlightAware Approximate
02:32PM 63.9911 -22.6775 103° East  Level FlightAware Approximate
02:33PM 63.9737 -22.6097 204° Southwest  Level FlightAware Approximate
02:34PM 63.9667 -22.6167 204° Southwest  Level FlightAware Approximate
02:35PM 63.9850 -22.6056 204° Southwest  Level Estimated
02:36PM 63.9850 -22.6056 204° Southwest  Level Estimated
02:37PM 63.9850 -22.6056 204° Southwest  Level Estimated
02:38PM 63.9850 -22.6056 204° Southwest  Level Estimated
02:39PM 63.9850 -22.6056 204° Southwest  Level Estimated
02:40PM 63.9850 -22.6056 204° Southwest  Level Estimated
02:41PM 63.9850 -22.6056 204° Southwest  Level Estimated
02:42PM 63.9850 -22.6056 204° Southwest  Level Estimated
02:43PM 63.9850 -22.6056 204° Southwest  Level Estimated
02:44PM 63.9850 -22.6056 204° Southwest  Level Estimated
02:45PM 63.9850 -22.6056 204° Southwest  Level Estimated
02:46PM 63.9850 -22.6056 204° Southwest  Level Estimated
02:47PM 63.9850 -22.6056 204° Southwest  Level Estimated
02:48PM 63.9850 -22.6056 204° Southwest  Level Estimated
02:49PM 63.9850 -22.6056 204° Southwest  Level Estimated
02:50PM 63.9850 -22.6056 204° Southwest  Level Estimated
02:51PM 63.9850 -22.6056 204° Southwest  Level Estimated